createdAt,value
2022-10-15T00:00:31.572Z,14.24
2022-10-15T00:03:00.137Z,14.25
2022-10-15T00:05:28.464Z,14.18
2022-10-15T00:07:56.709Z,14.15
2022-10-15T00:10:24.873Z,14.06
2022-10-15T00:12:53.453Z,14.16
2022-10-15T00:15:23.115Z,14.20
2022-10-15T00:17:51.423Z,14.29
2022-10-15T00:20:19.756Z,14.28
2022-10-15T00:22:47.988Z,14.00
2022-10-15T00:25:16.223Z,14.20
2022-10-15T00:27:44.810Z,14.09
2022-10-15T00:30:14.040Z,14.05
2022-10-15T00:32:43.656Z,14.16
2022-10-15T00:35:11.817Z,14.21
2022-10-15T00:37:40.360Z,13.96
2022-10-15T00:40:09.857Z,13.98
2022-10-15T00:42:38.069Z,14.12
2022-10-15T00:45:06.877Z,14.19
2022-10-15T00:47:38.383Z,14.12
2022-10-15T00:50:09.220Z,14.24
2022-10-15T00:52:44.024Z,14.19
2022-10-15T00:55:14.785Z,14.38
2022-10-15T00:57:43.250Z,14.40
2022-10-15T01:00:13.015Z,14.20
2022-10-15T01:02:41.247Z,14.30
2022-10-15T01:05:11.319Z,14.10
2022-10-15T01:07:39.537Z,14.11
2022-10-15T01:10:08.709Z,14.02
2022-10-15T01:12:45.297Z,14.12
2022-10-15T01:15:16.967Z,14.13
2022-10-15T01:17:47.243Z,14.12
2022-10-15T01:20:49.360Z,14.10
2022-10-15T01:23:54.177Z,14.28
2022-10-15T01:26:43.406Z,14.28
2022-10-15T01:29:17.246Z,13.98
2022-10-15T01:31:49.546Z,14.22
2022-10-15T01:36:51.380Z,14.30
2022-10-15T01:39:23.043Z,14.22
2022-10-15T01:41:52.885Z,14.23
2022-10-15T01:44:22.100Z,14.13
2022-10-15T01:46:54.072Z,14.23
2022-10-15T01:49:24.765Z,14.00
2022-10-15T01:51:54.268Z,14.11
2022-10-15T01:54:22.420Z,14.14
2022-10-15T01:56:50.883Z,13.99
2022-10-15T01:59:19.801Z,14.08
2022-10-15T02:01:48.080Z,14.10
2022-10-15T02:04:24.281Z,14.18
2022-10-15T02:06:55.593Z,14.05
2022-10-15T02:09:28.602Z,14.27
2022-10-15T02:12:02.687Z,14.18
2022-10-15T02:14:32.727Z,14.20
2022-10-15T02:17:04.661Z,14.27
2022-10-15T02:19:38.095Z,14.04
2022-10-15T02:22:08.627Z,14.17
2022-10-15T02:24:37.912Z,14.12
2022-10-15T02:27:06.236Z,14.15
2022-10-15T02:29:35.069Z,14.18
2022-10-15T02:32:03.445Z,14.10
2022-10-15T02:34:31.858Z,14.12
2022-10-15T02:37:03.220Z,14.09
2022-10-15T02:39:31.734Z,14.17
2022-10-15T02:41:59.991Z,14.12
2022-10-15T02:44:28.539Z,14.03
2022-10-15T02:46:56.795Z,14.21
2022-10-15T02:49:25.112Z,14.18
2022-10-15T02:51:53.824Z,14.11
2022-10-15T02:54:23.510Z,14.01
2022-10-15T02:56:51.744Z,14.11
2022-10-15T02:59:20.452Z,14.19
2022-10-15T03:01:48.643Z,14.27
2022-10-15T03:04:16.847Z,14.27
2022-10-15T03:06:45.355Z,14.21
2022-10-15T03:09:13.809Z,14.22
2022-10-15T03:11:43.498Z,14.25
2022-10-15T03:14:12.696Z,14.07
2022-10-15T03:16:40.998Z,14.19
2022-10-15T03:19:09.275Z,14.17
2022-10-15T03:21:37.459Z,14.23
2022-10-15T03:24:05.957Z,14.31
2022-10-15T03:26:34.291Z,14.41
2022-10-15T03:29:04.224Z,14.22
2022-10-15T03:31:33.780Z,14.38
2022-10-15T03:34:01.959Z,14.11
2022-10-15T03:36:30.106Z,14.07
2022-10-15T03:38:59.643Z,14.12
2022-10-15T03:41:27.827Z,14.15
2022-10-15T03:43:56.132Z,14.11
2022-10-15T03:46:25.761Z,14.01
2022-10-15T03:48:54.027Z,13.99
2022-10-15T03:51:24.635Z,13.97
2022-10-15T03:53:55.134Z,13.89
2022-10-15T03:56:23.326Z,13.76
2022-10-15T03:58:51.559Z,13.76
2022-10-15T04:01:20.168Z,13.99
2022-10-15T04:03:52.851Z,13.97
2022-10-15T04:06:21.061Z,13.74
2022-10-15T04:08:49.408Z,13.69
2022-10-15T04:11:17.666Z,13.66
2022-10-15T04:13:49.943Z,13.81
2022-10-15T04:16:18.232Z,13.85
2022-10-15T04:18:46.439Z,14.09
2022-10-15T04:21:16.094Z,14.03
2022-10-15T04:23:44.264Z,13.90
2022-10-15T04:26:12.530Z,14.07
2022-10-15T04:28:40.905Z,14.01
2022-10-15T04:31:09.175Z,14.07
2022-10-15T04:33:37.397Z,13.94
2022-10-15T04:36:07.174Z,13.94
2022-10-15T04:38:36.922Z,13.95
2022-10-15T04:41:06.731Z,13.88
2022-10-15T04:43:35.077Z,13.85
2022-10-15T04:46:04.256Z,13.84
2022-10-15T04:48:33.398Z,13.78
2022-10-15T04:51:05.359Z,13.90
2022-10-15T04:53:33.646Z,13.87
2022-10-15T04:56:04.105Z,13.80
2022-10-15T04:58:32.839Z,13.93
2022-10-15T05:01:02.499Z,13.73
2022-10-15T05:03:30.951Z,13.71
2022-10-15T05:06:02.022Z,13.99
2022-10-15T05:08:30.375Z,14.04
2022-10-15T05:11:03.317Z,13.99
2022-10-15T05:13:31.641Z,13.92
2022-10-15T05:16:03.957Z,13.79
2022-10-15T05:18:32.183Z,13.77
2022-10-15T05:21:02.750Z,13.96
2022-10-15T05:23:30.987Z,13.83
2022-10-15T05:26:01.132Z,13.85
2022-10-15T05:28:30.806Z,13.77
2022-10-15T05:31:04.753Z,13.64
2022-10-15T05:33:33.007Z,13.78
2022-10-15T05:36:10.231Z,13.77
2022-10-15T05:38:38.971Z,13.81
2022-10-15T05:41:07.251Z,13.84
2022-10-15T05:43:40.328Z,13.84
2022-10-15T05:46:09.854Z,13.82
2022-10-15T05:48:38.036Z,13.74
2022-10-15T05:51:07.031Z,13.79
2022-10-15T05:53:35.291Z,13.75
2022-10-15T05:56:03.507Z,13.64
2022-10-15T05:58:34.837Z,13.54
2022-10-15T06:01:07.833Z,13.45
2022-10-15T06:03:36.519Z,13.72
2022-10-15T06:06:06.730Z,13.74
2022-10-15T06:08:35.456Z,13.66
2022-10-15T06:11:06.965Z,13.66
2022-10-15T06:13:39.846Z,13.61
2022-10-15T06:16:09.812Z,13.49
2022-10-15T06:18:38.730Z,13.32
2022-10-15T06:21:07.784Z,13.42
2022-10-15T06:23:36.053Z,13.60
2022-10-15T06:26:04.714Z,13.59
2022-10-15T06:28:33.062Z,13.54
2022-10-15T06:31:01.349Z,13.72
2022-10-15T06:33:31.067Z,13.43
2022-10-15T06:36:02.478Z,13.42
2022-10-15T06:38:30.701Z,13.50
2022-10-15T06:40:58.929Z,13.61
2022-10-15T06:43:31.009Z,13.63
2022-10-15T06:46:01.472Z,13.48
2022-10-15T06:48:31.129Z,13.32
2022-10-15T06:50:59.702Z,13.60
2022-10-15T06:53:28.157Z,13.39
2022-10-15T06:55:58.625Z,13.64
2022-10-15T06:58:26.913Z,13.78
2022-10-15T07:01:00.059Z,13.68
2022-10-15T07:03:28.911Z,13.66
2022-10-15T07:06:00.682Z,13.96
2022-10-15T07:08:28.895Z,13.71
2022-10-15T07:10:57.169Z,13.57
2022-10-15T07:13:25.454Z,13.76
2022-10-15T07:15:56.060Z,13.89
2022-10-15T07:18:24.440Z,13.79
2022-10-15T07:20:52.616Z,13.86
2022-10-15T07:23:25.520Z,13.90
2022-10-15T07:25:56.253Z,13.75
2022-10-15T07:28:24.668Z,13.73
2022-10-15T07:30:53.557Z,13.66
2022-10-15T07:33:21.851Z,13.65
2022-10-15T07:35:50.063Z,13.66
2022-10-15T07:38:18.473Z,13.80
2022-10-15T07:40:48.097Z,13.62
2022-10-15T07:43:17.245Z,13.67
2022-10-15T07:45:49.475Z,13.75
2022-10-15T07:48:17.786Z,13.69
2022-10-15T07:50:46.049Z,13.59
2022-10-15T07:53:15.368Z,13.52
2022-10-15T07:55:45.534Z,13.48
2022-10-15T07:58:15.484Z,13.63
2022-10-15T08:00:43.736Z,13.52
2022-10-15T08:03:12.015Z,13.77
2022-10-15T08:05:40.236Z,13.58
2022-10-15T08:08:08.781Z,13.69
2022-10-15T08:10:37.375Z,13.81
2022-10-15T08:13:05.613Z,13.88
2022-10-15T08:15:35.251Z,13.71
2022-10-15T08:18:03.824Z,13.71
2022-10-15T08:20:32.045Z,13.73
2022-10-15T08:23:00.305Z,13.76
2022-10-15T08:25:28.559Z,13.74
2022-10-15T08:27:57.667Z,13.89
2022-10-15T08:30:25.959Z,13.67
2022-10-15T08:32:55.641Z,13.81
2022-10-15T08:35:23.807Z,13.77
2022-10-15T08:37:55.263Z,14.03
2022-10-15T08:40:23.528Z,14.04
2022-10-15T08:42:52.480Z,13.99
2022-10-15T08:45:23.672Z,14.08
2022-10-15T08:47:52.909Z,13.98
2022-10-15T08:50:29.048Z,14.10
2022-10-15T08:52:57.543Z,14.13
2022-10-15T08:55:25.796Z,14.29
2022-10-15T08:57:55.611Z,14.28
2022-10-15T09:00:28.043Z,14.55
2022-10-15T09:03:03.017Z,14.31
2022-10-15T09:05:37.895Z,14.12
2022-10-15T09:08:12.663Z,14.26
2022-10-15T09:11:13.085Z,14.19
2022-10-15T09:14:17.989Z,14.27
2022-10-15T09:16:49.761Z,14.34
2022-10-15T09:19:19.015Z,14.60
2022-10-15T09:21:49.272Z,14.58
2022-10-15T09:24:20.764Z,14.59
2022-10-15T09:27:02.547Z,14.64
2022-10-15T09:29:33.835Z,14.78
2022-10-15T09:32:10.323Z,14.73
2022-10-15T09:34:41.281Z,14.86
2022-10-15T09:37:15.374Z,14.72
2022-10-15T09:40:14.607Z,14.79
2022-10-15T09:42:42.927Z,15.04
2022-10-15T09:45:14.309Z,14.83
2022-10-15T09:47:54.091Z,15.04
2022-10-15T09:50:25.432Z,15.18
2022-10-15T09:53:04.806Z,15.33
2022-10-15T09:55:36.973Z,15.51
2022-10-15T09:58:09.969Z,15.26
2022-10-15T10:00:55.207Z,15.42
2022-10-15T10:03:25.824Z,15.43
2022-10-15T10:06:05.510Z,15.38
2022-10-15T10:08:36.740Z,15.50
2022-10-15T10:11:06.169Z,15.47
2022-10-15T10:13:36.109Z,15.33
2022-10-15T10:16:05.303Z,15.09
2022-10-15T10:18:35.005Z,15.19
2022-10-15T10:21:03.773Z,15.40
2022-10-15T10:23:34.748Z,15.28
2022-10-15T10:26:06.133Z,15.48
2022-10-15T10:28:39.363Z,15.48
2022-10-15T10:31:11.633Z,15.58
2022-10-15T10:33:52.375Z,15.57
2022-10-15T10:36:21.797Z,15.54
2022-10-15T10:38:57.114Z,15.89
2022-10-15T10:41:26.800Z,15.78
2022-10-15T10:43:55.995Z,15.88
2022-10-15T10:46:24.923Z,15.86
2022-10-15T10:48:53.788Z,15.67
2022-10-15T10:51:26.545Z,15.54
2022-10-15T10:53:56.949Z,15.81
2022-10-15T10:56:29.689Z,15.48
2022-10-15T10:59:00.527Z,15.48
2022-10-15T11:01:29.172Z,15.55
2022-10-15T11:03:57.593Z,15.53
2022-10-15T11:06:41.456Z,15.55
2022-10-15T11:09:17.227Z,15.74
2022-10-15T11:11:52.127Z,15.57
2022-10-15T11:14:24.367Z,15.42
2022-10-15T11:16:55.297Z,15.46
2022-10-15T11:19:54.671Z,15.48
2022-10-15T11:22:28.248Z,15.54
2022-10-15T11:25:07.563Z,15.55
2022-10-15T11:27:46.017Z,15.73
2022-10-15T11:30:21.389Z,15.73
2022-10-15T11:33:06.801Z,15.92
2022-10-15T11:35:52.998Z,15.82
2022-10-15T11:38:27.053Z,15.88
2022-10-15T11:41:13.539Z,16.27
2022-10-15T11:43:52.700Z,16.10
2022-10-15T11:46:23.075Z,16.05
2022-10-15T11:48:58.300Z,16.00
2022-10-15T11:51:30.838Z,15.98
2022-10-15T11:54:10.304Z,16.04
2022-10-15T11:56:39.782Z,16.08
2022-10-15T11:59:17.147Z,16.11
2022-10-15T12:01:46.786Z,16.19
2022-10-15T12:04:18.737Z,16.33
2022-10-15T12:06:48.915Z,16.38
2022-10-15T12:09:18.251Z,16.40
2022-10-15T12:11:48.843Z,16.38
2022-10-15T12:14:22.885Z,16.53
2022-10-15T12:16:56.083Z,16.26
2022-10-15T12:19:26.815Z,16.16
2022-10-15T12:22:09.778Z,16.33
2022-10-15T12:24:54.141Z,16.38
2022-10-15T12:27:34.774Z,16.19
2022-10-15T12:30:26.067Z,16.37
2022-10-15T12:32:55.498Z,16.36
2022-10-15T12:35:35.364Z,16.51
2022-10-15T12:38:28.507Z,16.32
2022-10-15T12:40:58.664Z,16.38
2022-10-15T12:43:40.293Z,16.24
2022-10-15T12:46:11.023Z,16.24
2022-10-15T12:48:41.096Z,16.18
2022-10-15T12:51:39.704Z,16.38
2022-10-15T12:54:35.544Z,16.14
2022-10-15T12:57:06.628Z,16.32
2022-10-15T12:59:56.774Z,16.29
2022-10-15T13:05:26.692Z,16.35
2022-10-15T13:07:57.376Z,16.62
2022-10-15T13:10:28.865Z,16.68
2022-10-15T13:12:58.339Z,16.53
2022-10-15T13:15:34.400Z,16.43
2022-10-15T13:18:09.458Z,16.40
2022-10-15T13:20:38.407Z,16.51
2022-10-15T13:23:28.994Z,16.60
2022-10-15T13:26:15.605Z,16.79
2022-10-15T13:28:44.236Z,16.52
2022-10-15T13:31:17.273Z,16.55
2022-10-15T13:33:47.798Z,16.81
2022-10-15T13:36:20.381Z,16.54
2022-10-15T13:38:53.540Z,16.77
2022-10-15T13:41:25.706Z,16.69
2022-10-15T13:43:58.734Z,16.63
2022-10-15T13:46:27.506Z,16.75
2022-10-15T13:49:03.587Z,16.71
2022-10-15T13:51:35.990Z,16.81
2022-10-15T13:54:04.624Z,16.91
2022-10-15T13:56:33.276Z,16.91
2022-10-15T13:59:01.684Z,16.81
2022-10-15T14:01:30.329Z,16.88
2022-10-15T14:04:00.782Z,16.77
2022-10-15T14:06:29.884Z,16.95
2022-10-15T14:08:59.061Z,17.00
2022-10-15T14:11:27.445Z,17.05
2022-10-15T14:13:56.851Z,17.01
2022-10-15T14:16:28.185Z,17.09
2022-10-15T14:18:57.887Z,16.94
2022-10-15T14:21:32.019Z,16.91
2022-10-15T14:24:07.149Z,16.83
2022-10-15T14:26:35.543Z,16.89
2022-10-15T14:29:03.804Z,16.87
2022-10-15T14:31:34.465Z,16.89
2022-10-15T14:34:03.262Z,16.88
2022-10-15T14:36:33.527Z,17.12
2022-10-15T14:39:30.634Z,17.15
2022-10-15T14:42:00.107Z,17.06
2022-10-15T14:44:29.030Z,17.07
2022-10-15T14:47:01.766Z,17.20
2022-10-15T14:49:30.896Z,17.07
2022-10-15T14:52:05.987Z,17.01
2022-10-15T14:54:37.462Z,16.84
2022-10-15T14:57:06.022Z,16.87
2022-10-15T14:59:37.573Z,16.79
2022-10-15T15:02:05.916Z,16.84
2022-10-15T15:04:36.190Z,16.96
2022-10-15T15:07:08.470Z,17.01
2022-10-15T15:09:36.658Z,16.88
2022-10-15T15:12:05.179Z,16.83
2022-10-15T15:14:34.440Z,16.88
2022-10-15T15:17:02.724Z,16.88
2022-10-15T15:19:30.947Z,17.00
2022-10-15T15:21:59.331Z,16.98
2022-10-15T15:24:40.497Z,17.18
2022-10-15T15:27:08.739Z,17.12
2022-10-15T15:29:51.769Z,17.05
2022-10-15T15:32:22.990Z,16.98
2022-10-15T15:34:52.316Z,16.98
2022-10-15T15:37:21.342Z,17.19
2022-10-15T15:39:51.002Z,17.10
2022-10-15T15:42:20.355Z,17.16
2022-10-15T15:44:48.635Z,17.18
2022-10-15T15:47:17.217Z,17.16
2022-10-15T15:49:45.493Z,17.20
2022-10-15T15:52:14.279Z,17.18
2022-10-15T15:54:43.020Z,17.00
2022-10-15T15:57:12.700Z,17.11
2022-10-15T15:59:40.993Z,17.25
2022-10-15T16:02:09.432Z,17.11
2022-10-15T16:04:38.292Z,17.13
2022-10-15T16:07:09.021Z,17.25
2022-10-15T16:09:40.081Z,17.41
2022-10-15T16:12:08.315Z,17.27
2022-10-15T16:14:37.988Z,17.02
2022-10-15T16:17:06.516Z,17.00
2022-10-15T16:19:34.788Z,16.83
2022-10-15T16:22:03.038Z,16.76
2022-10-15T16:24:31.281Z,16.69
2022-10-15T16:26:59.558Z,16.70
2022-10-15T16:29:27.845Z,16.69
2022-10-15T16:31:57.609Z,16.70
2022-10-15T16:34:26.193Z,16.69
2022-10-15T16:36:54.503Z,16.58
2022-10-15T16:39:22.735Z,16.51
2022-10-15T16:41:51.032Z,16.48
2022-10-15T16:44:19.262Z,16.68
2022-10-15T16:46:47.507Z,16.64
2022-10-15T16:49:17.547Z,16.48
2022-10-15T16:51:45.921Z,16.42
2022-10-15T16:54:15.610Z,16.41
2022-10-15T16:56:45.397Z,16.42
2022-10-15T16:59:16.058Z,16.19
2022-10-15T17:01:44.385Z,16.44
2022-10-15T17:04:12.802Z,16.24
2022-10-15T17:06:42.430Z,16.25
2022-10-15T17:09:10.706Z,16.07
2022-10-15T17:11:41.813Z,16.20
2022-10-15T17:14:11.243Z,16.29
2022-10-15T17:16:40.231Z,16.30
2022-10-15T17:19:09.522Z,16.41
2022-10-15T17:21:40.379Z,16.18
2022-10-15T17:24:14.580Z,16.12
2022-10-15T17:26:43.558Z,16.19
2022-10-15T17:29:12.975Z,16.25
2022-10-15T17:31:41.560Z,16.24
2022-10-15T17:34:11.682Z,16.05
2022-10-15T17:36:44.929Z,16.20
2022-10-15T17:39:15.280Z,16.15
2022-10-15T17:41:43.509Z,16.16
2022-10-15T17:44:12.055Z,16.07
2022-10-15T17:46:40.397Z,16.25
2022-10-15T17:49:09.805Z,16.21
2022-10-15T17:51:38.098Z,15.99
2022-10-15T17:54:06.668Z,16.01
2022-10-15T17:56:36.990Z,15.83
2022-10-15T17:59:06.074Z,16.02
2022-10-15T18:04:24.314Z,15.91
2022-10-15T18:06:52.554Z,15.86
2022-10-15T18:09:20.725Z,15.75
2022-10-15T18:11:50.599Z,15.82
2022-10-15T18:16:51.958Z,15.84
2022-10-15T18:19:22.158Z,15.92
2022-10-15T18:21:50.364Z,15.78
2022-10-15T18:24:21.786Z,15.71
2022-10-15T18:26:52.306Z,15.69
2022-10-15T18:29:20.552Z,15.71
2022-10-15T18:31:52.219Z,15.61
2022-10-15T18:34:23.173Z,15.47
2022-10-15T18:36:51.375Z,15.47
2022-10-15T18:39:19.599Z,15.30
2022-10-15T18:41:47.842Z,15.27
2022-10-15T18:44:18.189Z,15.44
2022-10-15T18:46:46.816Z,15.44
2022-10-15T18:49:15.487Z,15.17
2022-10-15T18:51:45.972Z,15.07
2022-10-15T18:54:14.739Z,15.01
2022-10-15T18:56:42.902Z,15.13
2022-10-15T18:59:11.336Z,14.92
2022-10-15T19:01:42.070Z,14.88
2022-10-15T19:04:11.875Z,14.86
2022-10-15T19:06:41.114Z,14.80
2022-10-15T19:09:10.192Z,14.80
2022-10-15T19:11:38.592Z,14.82
2022-10-15T19:14:06.916Z,14.67
2022-10-15T19:16:35.465Z,14.47
2022-10-15T19:19:07.539Z,14.53
2022-10-15T19:21:37.695Z,14.50
2022-10-15T19:24:06.424Z,14.47
2022-10-15T19:26:35.316Z,14.66
2022-10-15T19:29:03.708Z,14.68
2022-10-15T19:31:33.130Z,14.69
2022-10-15T19:34:01.481Z,14.61
2022-10-15T19:36:32.362Z,14.52
2022-10-15T19:39:02.332Z,14.60
2022-10-15T19:41:30.656Z,14.46
2022-10-15T19:43:58.886Z,14.38
2022-10-15T19:46:29.388Z,14.31
2022-10-15T19:48:57.835Z,14.39
2022-10-15T19:51:26.093Z,14.41
2022-10-15T19:53:56.658Z,14.44
2022-10-15T19:56:25.739Z,14.45
2022-10-15T19:58:55.718Z,14.50
2022-10-15T20:01:24.001Z,14.53
2022-10-15T20:03:52.635Z,14.44
2022-10-15T20:06:21.057Z,14.37
2022-10-15T20:08:49.299Z,14.19
2022-10-15T20:11:19.205Z,14.30
2022-10-15T20:13:47.458Z,14.36
2022-10-15T20:16:18.470Z,14.32
2022-10-15T20:18:49.066Z,14.37
2022-10-15T20:21:17.312Z,14.36
2022-10-15T20:23:46.894Z,14.38
2022-10-15T20:26:15.761Z,14.41
2022-10-15T20:28:45.959Z,14.39
2022-10-15T20:31:16.352Z,14.26
2022-10-15T20:33:44.739Z,14.32
2022-10-15T20:36:16.397Z,14.20
2022-10-15T20:38:46.165Z,14.16
2022-10-15T20:41:15.099Z,14.17
2022-10-15T20:43:45.445Z,14.23
2022-10-15T20:46:14.576Z,14.18
2022-10-15T20:48:43.071Z,14.23
2022-10-15T20:51:11.306Z,14.12
2022-10-15T20:53:39.458Z,14.23
2022-10-15T20:56:08.784Z,14.21
2022-10-15T20:58:37.363Z,14.15
2022-10-15T21:01:07.956Z,14.22
2022-10-15T21:03:36.306Z,14.22
2022-10-15T21:06:04.575Z,14.34
2022-10-15T21:08:32.777Z,14.21
2022-10-15T21:11:04.927Z,14.14
2022-10-15T21:13:33.179Z,14.22
2022-10-15T21:16:01.933Z,14.26
2022-10-15T21:18:31.573Z,14.28
2022-10-15T21:21:02.293Z,14.09
2022-10-15T21:23:30.510Z,14.23
2022-10-15T21:26:00.485Z,14.08
2022-10-15T21:28:29.224Z,14.36
2022-10-15T21:30:57.576Z,14.25
2022-10-15T21:33:25.830Z,14.22
2022-10-15T21:35:55.911Z,14.17
2022-10-15T21:38:24.118Z,14.23
2022-10-15T21:40:53.916Z,14.16
2022-10-15T21:43:24.691Z,14.16
2022-10-15T21:45:54.269Z,14.08
2022-10-15T21:48:22.581Z,14.05
2022-10-15T21:50:50.787Z,14.11
2022-10-15T21:53:20.415Z,14.22
2022-10-15T21:55:54.043Z,14.17
2022-10-15T21:58:22.415Z,14.15
2022-10-15T22:00:50.725Z,14.11
2022-10-15T22:03:18.958Z,14.02
2022-10-15T22:05:47.737Z,14.10
2022-10-15T22:08:15.993Z,14.17
2022-10-15T22:10:46.915Z,14.28
2022-10-15T22:13:15.925Z,14.22
2022-10-15T22:15:49.851Z,14.29
2022-10-15T22:18:18.087Z,14.34
2022-10-15T22:20:46.419Z,14.21
2022-10-15T22:23:14.698Z,14.08
2022-10-15T22:25:43.292Z,14.18
2022-10-15T22:28:13.193Z,14.23
2022-10-15T22:30:41.475Z,14.16
2022-10-15T22:33:09.805Z,14.20
2022-10-15T22:35:39.381Z,14.16
2022-10-15T22:38:07.637Z,14.03
2022-10-15T22:40:35.922Z,14.06
2022-10-15T22:43:04.469Z,14.10
2022-10-15T22:45:34.352Z,14.11
2022-10-15T22:48:02.531Z,14.17
2022-10-15T22:50:30.901Z,14.13
2022-10-15T22:52:59.186Z,14.20
2022-10-15T22:55:27.638Z,14.33
2022-10-15T22:57:56.042Z,14.23
2022-10-15T23:00:24.599Z,14.13
2022-10-15T23:02:54.935Z,14.04
2022-10-15T23:05:23.193Z,14.04
2022-10-15T23:07:51.503Z,14.24
2022-10-15T23:10:19.916Z,14.11
2022-10-15T23:12:48.689Z,14.17
2022-10-15T23:15:16.997Z,14.15
2022-10-15T23:17:45.264Z,14.12
2022-10-15T23:20:15.009Z,14.04
2022-10-15T23:22:43.275Z,13.95
2022-10-15T23:25:11.553Z,13.99
2022-10-15T23:27:39.864Z,14.06
2022-10-15T23:30:14.636Z,13.89
2022-10-15T23:32:52.551Z,13.98
2022-10-15T23:35:23.555Z,13.93
2022-10-15T23:37:51.808Z,13.99
2022-10-15T23:40:20.104Z,13.98
2022-10-15T23:42:48.741Z,13.83
2022-10-15T23:45:16.973Z,13.99
2022-10-15T23:47:45.177Z,14.03
2022-10-15T23:50:13.516Z,14.14
2022-10-15T23:52:43.171Z,14.22
2022-10-15T23:55:11.365Z,14.09
2022-10-15T23:57:39.605Z,14.15
